Aviation Digital Data Service (ADDS)

Output produced by METARs form (2038 UTC 13 November 2019)
found at http://www.aviationweather.gov/metar/data/
 
Forecast for: OMDB (DUBAI INTL AIRPO, AE)
Text: TAF OMDB 131655Z 1318/1500 09005KT CAVOK
Forecast period: 1800 UTC 13 November 2019 to 0900 UTC 14 November 2019
Forecast type: FROM: standard forecast or significant change
Winds: from the E (90 degrees) at 6 MPH (5 knots; 2.6 m/s)
Visibility: 6 or more miles 10+ km)
Ceiling: unknown
Clouds: missing
Weather: NSW  (no significant weather)
Text: BECMG 1409/1411 35012KT
Forecast period: 0900 to 1600 UTC 14 November 2019
Forecast type: BECOMING: Conditions expected to become as follows by 1100 UTC 14 November 2019
Winds: from the N (350 degrees) at 14 MPH (12 knots; 6.2 m/s)
Visibility: 6 or more miles 10+ km)
Ceiling: unknown
Clouds: missing
Weather: NSW  (no significant weather)
Text: BECMG 1416/1418 12005KT
Forecast period: 1600 UTC 14 November 2019 to 0000 UTC 15 November 2019
Forecast type: BECOMING: Conditions expected to become as follows by 1800 UTC 14 November 2019
Winds: from the ESE (120 degrees) at 6 MPH (5 knots; 2.6 m/s)
Visibility: 6 or more miles 10+ km)
Ceiling: unknown
Clouds: missing
Weather: NSW  (no significant weather)